createdAt,value
2023-03-14T00:00:18.654Z,8.11
2023-03-14T00:00:50.535Z,8.11
2023-03-14T00:01:13.204Z,8.11
2023-03-14T00:01:35.628Z,8.11
2023-03-14T00:02:10.446Z,8.11
2023-03-14T00:02:42.513Z,8.11
2023-03-14T00:03:14.534Z,8.11
2023-03-14T00:03:46.323Z,8.11
2023-03-14T00:04:18.437Z,8.11
2023-03-14T00:04:50.567Z,8.11
2023-03-14T00:05:13.377Z,8.11
2023-03-14T00:05:35.766Z,8.11
2023-03-14T00:06:10.643Z,8.11
2023-03-14T00:06:42.536Z,8.11
2023-03-14T00:07:14.417Z,8.11
2023-03-14T00:07:46.417Z,8.11
2023-03-14T00:08:19.375Z,8.11
2023-03-14T00:08:50.494Z,8.11
2023-03-14T00:09:12.904Z,8.11
2023-03-14T00:09:35.489Z,8.11
2023-03-14T00:10:10.428Z,8.11
2023-03-14T00:10:42.547Z,8.11
2023-03-14T00:11:14.449Z,8.11
2023-03-14T00:11:46.565Z,8.11
2023-03-14T00:12:18.499Z,8.11
2023-03-14T00:12:50.460Z,8.11
2023-03-14T00:13:13.657Z,8.11
2023-03-14T00:13:37.555Z,8.11
2023-03-14T00:14:10.291Z,8.11
2023-03-14T00:14:42.339Z,8.11
2023-03-14T00:15:14.753Z,8.11
2023-03-14T00:15:46.463Z,8.00
2023-03-14T00:16:18.301Z,8.11
2023-03-14T00:16:50.381Z,8.11
2023-03-14T00:17:13.154Z,7.88
2023-03-14T00:17:35.674Z,7.88
2023-03-14T00:18:11.862Z,8.11
2023-03-14T00:18:36.069Z,8.11
2023-03-14T00:19:15.049Z,8.11
2023-03-14T00:19:46.344Z,8.11
2023-03-14T00:20:18.699Z,7.88
2023-03-14T00:20:50.530Z,7.88
2023-03-14T00:21:13.305Z,7.88
2023-03-14T00:21:36.545Z,7.88
2023-03-14T00:22:10.562Z,7.88
2023-03-14T00:22:42.737Z,8.00
2023-03-14T00:23:17.332Z,8.00
2023-03-14T00:23:46.763Z,8.00
2023-03-14T00:24:19.658Z,7.88
2023-03-14T00:24:50.630Z,7.88
2023-03-14T00:25:13.448Z,7.88
2023-03-14T00:25:35.852Z,8.00
2023-03-14T00:26:10.920Z,8.00
2023-03-14T00:26:44.451Z,8.00
2023-03-14T00:27:16.683Z,8.11
2023-03-14T00:27:47.476Z,8.11
2023-03-14T00:28:18.890Z,8.00
2023-03-14T00:28:51.478Z,8.00
2023-03-14T00:29:13.908Z,8.00
2023-03-14T00:29:36.837Z,8.00
2023-03-14T00:30:10.531Z,8.00
2023-03-14T00:30:44.382Z,8.00
2023-03-14T00:31:14.875Z,8.00
2023-03-14T00:31:46.630Z,8.00
2023-03-14T00:32:19.248Z,8.11
2023-03-14T00:32:54.617Z,8.11
2023-03-14T00:33:15.941Z,8.11
2023-03-14T00:33:39.055Z,8.11
2023-03-14T00:34:13.742Z,8.11
2023-03-14T00:34:42.791Z,8.11
2023-03-14T00:35:15.157Z,8.11
2023-03-14T00:35:47.354Z,8.11
2023-03-14T00:36:19.406Z,7.88
2023-03-14T00:36:51.730Z,8.00
2023-03-14T00:37:12.924Z,8.11
2023-03-14T00:37:35.541Z,8.11
2023-03-14T00:38:10.621Z,8.11
2023-03-14T00:38:46.984Z,8.00
2023-03-14T00:39:14.624Z,8.00
2023-03-14T00:39:47.601Z,8.11
2023-03-14T00:40:18.301Z,8.11
2023-03-14T00:40:50.675Z,8.11
2023-03-14T00:41:13.484Z,8.11
2023-03-14T00:41:35.851Z,8.11
2023-03-14T00:42:10.386Z,8.11
2023-03-14T00:42:42.419Z,8.11
2023-03-14T00:43:16.502Z,8.11
2023-03-14T00:43:47.498Z,8.11
2023-03-14T00:44:19.922Z,8.11
2023-03-14T00:44:50.503Z,8.11
2023-03-14T00:45:15.219Z,8.11
2023-03-14T00:45:36.287Z,8.11
2023-03-14T00:46:11.420Z,8.11
2023-03-14T00:46:42.696Z,8.11
2023-03-14T00:47:14.249Z,8.11
2023-03-14T00:47:46.714Z,8.00
2023-03-14T00:48:18.729Z,8.00
2023-03-14T00:48:51.387Z,8.00
2023-03-14T00:49:14.007Z,8.11
2023-03-14T00:49:36.505Z,8.11
2023-03-14T00:50:10.655Z,8.11
2023-03-14T00:50:43.109Z,8.11
2023-03-14T00:51:14.591Z,8.00
2023-03-14T00:51:46.179Z,8.00
2023-03-14T00:52:18.467Z,8.00
2023-03-14T00:52:50.318Z,8.11
2023-03-14T00:53:13.009Z,8.11
2023-03-14T00:53:36.354Z,8.11
2023-03-14T00:54:10.769Z,8.11
2023-03-14T00:54:42.781Z,8.11
2023-03-14T00:55:14.306Z,8.11
2023-03-14T00:55:46.517Z,8.11
2023-03-14T00:56:18.377Z,8.00
2023-03-14T00:56:51.371Z,8.00
2023-03-14T00:57:14.012Z,8.00
2023-03-14T00:57:36.397Z,8.11
2023-03-14T00:58:10.291Z,8.11
2023-03-14T00:58:45.945Z,8.11
2023-03-14T00:59:08.549Z,8.11
2023-03-14T00:59:46.662Z,8.11
2023-03-14T01:00:18.293Z,8.11
2023-03-14T01:00:50.197Z,8.11
2023-03-14T01:01:12.917Z,8.11
2023-03-14T01:01:35.269Z,8.22
2023-03-14T01:02:10.555Z,8.22
2023-03-14T01:02:42.445Z,8.22
2023-03-14T01:03:14.589Z,8.22
2023-03-14T01:03:46.277Z,8.22
2023-03-14T01:04:18.833Z,8.11
2023-03-14T01:04:50.815Z,8.11
2023-03-14T01:05:14.755Z,8.11
2023-03-14T01:05:37.126Z,8.11
2023-03-14T01:06:10.550Z,8.11
2023-03-14T01:06:42.259Z,8.00
2023-03-14T01:07:14.322Z,8.00
2023-03-14T01:07:46.144Z,8.00
2023-03-14T01:08:18.580Z,8.00
2023-03-14T01:08:50.217Z,8.11
2023-03-14T01:09:13.251Z,8.11
2023-03-14T01:09:36.963Z,8.11
2023-03-14T01:10:10.617Z,8.11
2023-03-14T01:10:42.310Z,8.11
2023-03-14T01:11:14.355Z,8.11
2023-03-14T01:11:46.121Z,8.11
2023-03-14T01:12:19.783Z,8.00
2023-03-14T01:12:50.547Z,8.00
2023-03-14T01:13:14.347Z,8.00
2023-03-14T01:13:36.673Z,8.22
2023-03-14T01:14:10.637Z,8.00
2023-03-14T01:14:42.335Z,8.00
2023-03-14T01:15:14.835Z,8.22
2023-03-14T01:15:46.588Z,8.00
2023-03-14T01:16:18.321Z,8.00
2023-03-14T01:16:50.305Z,8.00
2023-03-14T01:17:13.620Z,8.00
2023-03-14T01:17:36.077Z,8.00
2023-03-14T01:18:10.213Z,8.00
2023-03-14T01:18:42.393Z,8.00
2023-03-14T01:19:14.300Z,8.00
2023-03-14T01:19:46.575Z,8.00
2023-03-14T01:20:18.179Z,8.00
2023-03-14T01:20:50.390Z,8.00
2023-03-14T01:21:13.174Z,8.00
2023-03-14T01:21:35.614Z,8.00
2023-03-14T01:22:10.504Z,8.00
2023-03-14T01:22:42.321Z,8.00
2023-03-14T01:23:14.577Z,8.00
2023-03-14T01:23:46.286Z,8.00
2023-03-14T01:24:18.539Z,8.00
2023-03-14T01:24:50.217Z,8.00
2023-03-14T01:25:13.186Z,8.00
2023-03-14T01:25:35.346Z,8.00
2023-03-14T01:26:11.617Z,8.00
2023-03-14T01:26:42.760Z,8.00
2023-03-14T01:27:14.295Z,8.00
2023-03-14T01:27:49.162Z,8.00
2023-03-14T01:28:18.205Z,8.00
2023-03-14T01:28:50.406Z,8.00
2023-03-14T01:29:14.118Z,8.00
2023-03-14T01:29:35.984Z,8.00
2023-03-14T01:30:11.439Z,8.00
2023-03-14T01:30:42.229Z,8.00
2023-03-14T01:31:14.654Z,8.00
2023-03-14T01:31:46.470Z,8.00
2023-03-14T01:32:18.544Z,8.00
2023-03-14T01:32:50.468Z,8.00
2023-03-14T01:33:13.270Z,8.00
2023-03-14T01:33:35.696Z,8.00
2023-03-14T01:34:12.145Z,8.00
2023-03-14T01:34:42.545Z,8.00
2023-03-14T01:35:08.468Z,8.00
2023-03-14T01:35:48.845Z,8.00
2023-03-14T01:36:18.988Z,8.00
2023-03-14T01:36:52.904Z,8.00
2023-03-14T01:37:13.984Z,8.00
2023-03-14T01:37:36.108Z,7.88
2023-03-14T01:38:12.967Z,7.88
2023-03-14T01:38:42.474Z,7.88
2023-03-14T01:39:14.489Z,7.88
2023-03-14T01:39:46.482Z,7.88
2023-03-14T01:40:18.635Z,8.11
2023-03-14T01:40:50.897Z,7.88
2023-03-14T01:41:14.118Z,7.88
2023-03-14T01:41:36.732Z,7.88
2023-03-14T01:42:10.391Z,8.11
2023-03-14T01:42:42.365Z,8.11
2023-03-14T01:43:14.684Z,8.11
2023-03-14T01:43:46.370Z,8.11
2023-03-14T01:44:18.300Z,8.11
2023-03-14T01:44:50.843Z,7.88
2023-03-14T01:45:13.896Z,7.88
2023-03-14T01:45:37.185Z,8.11
2023-03-14T01:46:10.666Z,8.11
2023-03-14T01:46:42.303Z,8.11
2023-03-14T01:47:15.076Z,8.11
2023-03-14T01:47:47.866Z,8.00
2023-03-14T01:48:22.725Z,8.00
2023-03-14T01:48:45.689Z,8.00
2023-03-14T01:49:18.821Z,7.77
2023-03-14T01:49:54.343Z,7.77
2023-03-14T01:50:17.047Z,7.88
2023-03-14T01:50:39.422Z,7.88
2023-03-14T01:51:14.906Z,8.00
2023-03-14T01:51:46.270Z,8.00
2023-03-14T01:52:18.129Z,8.00
2023-03-14T01:52:50.236Z,8.00
2023-03-14T01:53:15.065Z,8.00
2023-03-14T01:53:35.301Z,8.00
2023-03-14T01:54:10.332Z,8.00
2023-03-14T01:54:42.172Z,8.00
2023-03-14T01:55:21.048Z,8.00
2023-03-14T01:55:46.153Z,8.00
2023-03-14T01:56:18.527Z,8.00
2023-03-14T01:56:50.313Z,8.00
2023-03-14T01:57:15.833Z,8.00
2023-03-14T01:57:35.740Z,8.00
2023-03-14T01:58:10.321Z,8.00
2023-03-14T01:58:42.473Z,7.77
2023-03-14T01:59:16.498Z,7.88
2023-03-14T01:59:46.339Z,7.88
2023-03-14T02:00:18.354Z,7.88
2023-03-14T02:00:50.195Z,8.00
2023-03-14T02:01:13.305Z,8.00
2023-03-14T02:01:35.859Z,8.00
2023-03-14T02:02:10.373Z,8.00
2023-03-14T02:02:42.376Z,8.22
2023-03-14T02:03:14.463Z,8.00
2023-03-14T02:03:46.572Z,8.22
2023-03-14T02:04:18.120Z,8.22
2023-03-14T02:04:50.580Z,7.88
2023-03-14T02:05:13.381Z,7.88
2023-03-14T02:05:35.736Z,7.88
2023-03-14T02:06:10.314Z,7.88
2023-03-14T02:06:42.362Z,8.11
2023-03-14T02:07:14.457Z,8.11
2023-03-14T02:07:46.228Z,8.11
2023-03-14T02:08:18.288Z,8.11
2023-03-14T02:08:50.168Z,8.11
2023-03-14T02:09:13.498Z,8.11
2023-03-14T02:09:35.881Z,8.27
2023-03-14T02:10:10.570Z,8.50
2023-03-14T02:10:42.170Z,8.50
2023-03-14T02:11:14.213Z,8.50
2023-03-14T02:11:46.109Z,8.50
2023-03-14T02:12:18.541Z,8.38
2023-03-14T02:12:50.214Z,8.50
2023-03-14T02:13:13.497Z,8.50
2023-03-14T02:13:35.827Z,8.38
2023-03-14T02:14:10.294Z,8.38
2023-03-14T02:14:42.738Z,8.27
2023-03-14T02:15:14.440Z,8.50
2023-03-14T02:15:46.199Z,8.50
2023-03-14T02:16:19.486Z,8.61
2023-03-14T02:16:50.332Z,8.77
2023-03-14T02:17:13.208Z,8.77
2023-03-14T02:17:35.358Z,8.88
2023-03-14T02:18:10.226Z,8.77
2023-03-14T02:18:42.292Z,8.72
2023-03-14T02:19:14.166Z,8.61
2023-03-14T02:19:46.436Z,8.38
2023-03-14T02:20:20.685Z,8.11
2023-03-14T02:20:50.381Z,8.22
2023-03-14T02:21:13.861Z,8.11
2023-03-14T02:21:36.158Z,8.00
2023-03-14T02:22:10.329Z,8.00
2023-03-14T02:22:42.543Z,7.77
2023-03-14T02:23:14.594Z,7.72
2023-03-14T02:23:46.378Z,7.77
2023-03-14T02:24:21.299Z,7.72
2023-03-14T02:24:50.140Z,7.61
2023-03-14T02:25:16.103Z,7.50
2023-03-14T02:25:54.328Z,7.50
2023-03-14T02:26:17.037Z,7.50
2023-03-14T02:26:39.674Z,7.38
2023-03-14T02:27:14.311Z,7.38
2023-03-14T02:27:46.183Z,7.38
2023-03-14T02:28:18.192Z,7.38
2023-03-14T02:28:50.708Z,7.38
2023-03-14T02:29:13.491Z,7.72
2023-03-14T02:29:35.928Z,7.38
2023-03-14T02:30:10.507Z,7.38
2023-03-14T02:30:42.310Z,7.38
2023-03-14T02:31:14.356Z,7.38
2023-03-14T02:31:46.401Z,7.38
2023-03-14T02:32:18.569Z,7.38
2023-03-14T02:32:50.170Z,7.38
2023-03-14T02:33:12.930Z,7.50
2023-03-14T02:33:35.251Z,7.50
2023-03-14T02:34:10.391Z,7.50
2023-03-14T02:34:42.391Z,7.50
2023-03-14T02:35:14.246Z,7.50
2023-03-14T02:35:46.322Z,7.50
2023-03-14T02:36:18.301Z,7.50
2023-03-14T02:36:52.797Z,7.50
2023-03-14T02:37:13.268Z,7.61
2023-03-14T02:37:35.603Z,7.61
2023-03-14T02:38:10.200Z,7.88
2023-03-14T02:38:42.222Z,7.88
2023-03-14T02:39:14.223Z,7.88
2023-03-14T02:39:46.217Z,7.72
2023-03-14T02:40:18.232Z,7.72
2023-03-14T02:40:50.278Z,7.72
2023-03-14T02:41:13.201Z,7.72
2023-03-14T02:41:35.709Z,7.72
2023-03-14T02:42:10.246Z,7.77
2023-03-14T02:42:42.212Z,7.77
2023-03-14T02:43:14.451Z,7.77
2023-03-14T02:43:46.613Z,7.77
2023-03-14T02:44:18.263Z,7.77
2023-03-14T02:44:50.096Z,7.77
2023-03-14T02:45:13.510Z,7.77
2023-03-14T02:45:35.833Z,7.72
2023-03-14T02:46:11.733Z,7.50
2023-03-14T02:46:42.383Z,7.50
2023-03-14T02:47:14.388Z,7.50
2023-03-14T02:47:46.167Z,7.50
2023-03-14T02:48:18.342Z,7.50
2023-03-14T02:48:50.357Z,7.50
2023-03-14T02:49:13.554Z,7.50
2023-03-14T02:49:37.233Z,7.50
2023-03-14T02:50:10.282Z,7.50
2023-03-14T02:50:42.141Z,7.50
2023-03-14T02:51:14.141Z,7.38
2023-03-14T02:51:46.449Z,7.27
2023-03-14T02:52:18.373Z,7.27
2023-03-14T02:52:50.237Z,7.27
2023-03-14T02:53:13.131Z,7.27
2023-03-14T02:53:35.928Z,7.22
2023-03-14T02:54:10.186Z,7.22
2023-03-14T02:54:42.264Z,7.22
2023-03-14T02:55:14.186Z,7.22
2023-03-14T02:55:46.289Z,7.22
2023-03-14T02:56:18.075Z,7.22
2023-03-14T02:56:50.292Z,7.22
2023-03-14T02:57:12.961Z,7.22
2023-03-14T02:57:35.473Z,7.22
2023-03-14T02:58:10.343Z,7.11
2023-03-14T02:58:42.123Z,7.11
2023-03-14T02:59:14.094Z,7.11
2023-03-14T02:59:46.113Z,7.00
2023-03-14T03:00:17.665Z,7.00
2023-03-14T03:00:55.027Z,7.00
2023-03-14T03:01:16.179Z,6.88
2023-03-14T03:02:03.269Z,7.11
2023-03-14T03:02:25.846Z,7.11
2023-03-14T03:02:40.803Z,7.11
2023-03-14T03:03:14.870Z,7.11
2023-03-14T03:03:48.241Z,7.00
2023-03-14T03:04:18.549Z,7.00
2023-03-14T03:04:50.766Z,6.88
2023-03-14T03:05:13.440Z,6.88
2023-03-14T03:05:35.631Z,6.88
2023-03-14T03:06:10.673Z,6.88
2023-03-14T03:06:43.479Z,6.88
2023-03-14T03:07:14.475Z,6.88
2023-03-14T03:07:47.463Z,6.88
2023-03-14T03:08:18.699Z,6.88
2023-03-14T03:08:50.815Z,6.88
2023-03-14T03:09:13.500Z,6.88
2023-03-14T03:09:36.919Z,6.77
2023-03-14T03:10:10.441Z,6.77
2023-03-14T03:10:42.992Z,6.77
2023-03-14T03:11:14.203Z,6.77
2023-03-14T03:11:46.702Z,6.77
2023-03-14T03:12:18.669Z,6.77
2023-03-14T03:13:07.609Z,6.77
2023-03-14T03:13:38.458Z,6.77
2023-03-14T03:14:10.337Z,6.77
2023-03-14T03:14:42.237Z,6.77
2023-03-14T03:15:21.149Z,6.77
2023-03-14T03:15:43.074Z,6.77
2023-03-14T03:16:18.377Z,6.77
2023-03-14T03:16:50.210Z,6.77
2023-03-14T03:17:13.028Z,6.77
2023-03-14T03:17:35.249Z,6.77
2023-03-14T03:18:10.294Z,6.77
2023-03-14T03:18:42.244Z,6.77
2023-03-14T03:19:14.196Z,6.77
2023-03-14T03:19:46.174Z,6.77
2023-03-14T03:20:18.167Z,6.88
2023-03-14T03:20:50.144Z,6.88
2023-03-14T03:21:14.899Z,6.88
2023-03-14T03:21:37.140Z,6.77
2023-03-14T03:22:10.153Z,6.77
2023-03-14T03:22:43.673Z,6.77
2023-03-14T03:23:14.173Z,6.88
2023-03-14T03:23:46.289Z,6.88
2023-03-14T03:24:18.659Z,6.88
2023-03-14T03:24:50.170Z,6.88
2023-03-14T03:25:13.020Z,6.88
2023-03-14T03:25:35.270Z,7.00
2023-03-14T03:26:10.156Z,7.00
2023-03-14T03:26:42.289Z,7.00
2023-03-14T03:27:14.103Z,7.00
2023-03-14T03:27:46.216Z,7.00
2023-03-14T03:28:18.057Z,7.00
2023-03-14T03:28:51.753Z,7.00
2023-03-14T03:29:13.066Z,7.00
2023-03-14T03:29:35.409Z,7.00
2023-03-14T03:30:10.350Z,7.00
2023-03-14T03:30:42.104Z,6.88
2023-03-14T03:31:14.554Z,7.11
2023-03-14T03:31:46.107Z,7.11
2023-03-14T03:32:18.320Z,7.11
2023-03-14T03:32:50.228Z,7.11
2023-03-14T03:33:12.969Z,7.11
2023-03-14T03:33:35.396Z,7.11
2023-03-14T03:34:10.161Z,7.11
2023-03-14T03:34:42.418Z,7.11
2023-03-14T03:35:14.175Z,7.11
2023-03-14T03:35:46.277Z,7.11
2023-03-14T03:36:18.204Z,7.11
2023-03-14T03:36:50.074Z,7.11
2023-03-14T03:37:13.106Z,7.11
2023-03-14T03:37:35.552Z,7.11
2023-03-14T03:38:10.100Z,7.11
2023-03-14T03:38:42.216Z,7.11
2023-03-14T03:39:14.084Z,7.11
2023-03-14T03:39:46.284Z,7.11
2023-03-14T03:40:18.084Z,7.11
2023-03-14T03:40:50.153Z,7.11
2023-03-14T03:41:13.275Z,7.11
2023-03-14T03:41:35.705Z,7.22
2023-03-14T03:42:10.066Z,7.22
2023-03-14T03:42:42.181Z,7.22
2023-03-14T03:43:15.568Z,7.22
2023-03-14T03:43:46.381Z,7.22
2023-03-14T03:44:18.187Z,7.22
2023-03-14T03:44:50.183Z,7.22
2023-03-14T03:45:14.301Z,7.22
2023-03-14T03:45:36.750Z,7.22
2023-03-14T03:46:10.281Z,7.22
2023-03-14T03:46:42.128Z,7.22
2023-03-14T03:47:14.066Z,7.22
2023-03-14T03:47:47.681Z,7.11
2023-03-14T03:48:18.176Z,7.27
2023-03-14T03:48:50.029Z,7.27
2023-03-14T03:49:12.853Z,7.27
2023-03-14T03:49:35.121Z,7.27
2023-03-14T03:50:10.739Z,7.27
2023-03-14T03:50:42.414Z,7.27
2023-03-14T03:51:14.153Z,7.27
2023-03-14T03:51:46.380Z,7.27
2023-03-14T03:52:18.817Z,7.27
2023-03-14T03:52:50.165Z,7.27
2023-03-14T03:53:26.875Z,7.27
2023-03-14T03:53:54.150Z,7.27
2023-03-14T03:54:16.824Z,7.27
2023-03-14T03:54:39.208Z,7.27
2023-03-14T03:55:14.272Z,7.27
2023-03-14T03:55:46.092Z,7.27
2023-03-14T03:56:18.028Z,7.27
2023-03-14T03:56:50.051Z,7.27
2023-03-14T03:57:12.806Z,7.27
2023-03-14T03:57:35.303Z,7.27
2023-03-14T03:58:10.075Z,7.27
2023-03-14T03:58:42.373Z,7.27
2023-03-14T03:59:14.100Z,7.27
2023-03-14T03:59:46.207Z,7.27
2023-03-14T04:00:18.597Z,7.27
2023-03-14T04:00:50.395Z,7.27
2023-03-14T04:01:13.548Z,7.27
2023-03-14T04:01:36.701Z,7.22
2023-03-14T04:02:11.508Z,7.22
2023-03-14T04:02:42.630Z,7.22
2023-03-14T04:03:14.283Z,7.22
2023-03-14T04:03:46.456Z,7.11
2023-03-14T04:04:18.252Z,7.11
2023-03-14T04:04:50.252Z,7.11
2023-03-14T04:05:13.296Z,7.11
2023-03-14T04:05:35.647Z,7.11
2023-03-14T04:06:10.513Z,7.11
2023-03-14T04:06:42.188Z,7.11
2023-03-14T04:07:14.428Z,7.11
2023-03-14T04:07:46.191Z,7.11
2023-03-14T04:08:18.154Z,7.11
2023-03-14T04:08:50.196Z,7.22
2023-03-14T04:09:12.947Z,7.22
2023-03-14T04:09:35.383Z,7.22
2023-03-14T04:10:10.450Z,7.11
2023-03-14T04:10:42.180Z,7.11
2023-03-14T04:11:14.121Z,7.11
2023-03-14T04:11:46.234Z,7.11
2023-03-14T04:12:18.106Z,7.11
2023-03-14T04:12:50.505Z,7.22
2023-03-14T04:13:13.545Z,7.22
2023-03-14T04:13:35.833Z,7.22
2023-03-14T04:14:10.270Z,7.22
2023-03-14T04:14:42.231Z,7.22
2023-03-14T04:15:14.279Z,7.22
2023-03-14T04:15:46.293Z,7.22
2023-03-14T04:16:18.263Z,7.22
2023-03-14T04:16:50.261Z,7.22
2023-03-14T04:17:13.978Z,7.22
2023-03-14T04:17:36.597Z,7.22
2023-03-14T04:18:10.107Z,7.22
2023-03-14T04:18:42.001Z,7.22
2023-03-14T04:19:14.067Z,7.22
2023-03-14T04:19:46.120Z,7.22
2023-03-14T04:20:18.386Z,7.22
2023-03-14T04:20:50.089Z,7.22
2023-03-14T04:21:13.129Z,7.22
2023-03-14T04:21:38.235Z,7.22
2023-03-14T04:22:10.284Z,7.22
2023-03-14T04:22:43.502Z,7.22
2023-03-14T04:23:15.684Z,7.22
2023-03-14T04:23:46.174Z,7.22
2023-03-14T04:24:18.242Z,7.22
2023-03-14T04:24:50.081Z,7.22
2023-03-14T04:25:12.855Z,7.22
2023-03-14T04:25:35.124Z,7.22
2023-03-14T04:26:10.213Z,7.22
2023-03-14T04:26:42.441Z,7.22
2023-03-14T04:27:14.109Z,7.22
2023-03-14T04:27:46.211Z,7.22
2023-03-14T04:28:18.108Z,7.22
2023-03-14T04:28:50.382Z,7.22
2023-03-14T04:29:13.638Z,7.22
2023-03-14T04:29:35.778Z,7.22
2023-03-14T04:30:10.183Z,7.22
2023-03-14T04:30:42.044Z,7.22
2023-03-14T04:31:14.211Z,7.22
2023-03-14T04:31:46.699Z,7.22
2023-03-14T04:32:18.470Z,7.22
2023-03-14T04:32:50.281Z,7.22
2023-03-14T04:33:13.358Z,7.22
2023-03-14T04:33:35.172Z,7.22
2023-03-14T04:34:10.120Z,7.22
2023-03-14T04:34:42.293Z,7.22
2023-03-14T04:35:15.616Z,7.22
2023-03-14T04:35:46.234Z,7.22
2023-03-14T04:36:18.133Z,7.22
2023-03-14T04:36:49.986Z,7.22
2023-03-14T04:37:14.293Z,7.22
2023-03-14T04:37:36.467Z,7.22
2023-03-14T04:38:10.036Z,7.22
2023-03-14T04:38:41.982Z,7.22
2023-03-14T04:39:14.652Z,7.22
2023-03-14T04:39:46.207Z,7.22
2023-03-14T04:40:18.833Z,7.22
2023-03-14T04:40:50.072Z,7.22
2023-03-14T04:41:13.036Z,7.22
2023-03-14T04:41:35.305Z,7.22
2023-03-14T04:42:10.068Z,7.22
2023-03-14T04:42:42.029Z,7.22
2023-03-14T04:43:14.220Z,7.22
2023-03-14T04:43:46.379Z,7.22
2023-03-14T04:44:18.072Z,7.22
2023-03-14T04:44:50.431Z,7.22
2023-03-14T04:45:13.259Z,7.22
2023-03-14T04:45:35.463Z,7.22
2023-03-14T04:46:10.199Z,7.22
2023-03-14T04:46:42.373Z,7.22
2023-03-14T04:47:14.056Z,7.22
2023-03-14T04:47:46.129Z,7.22
2023-03-14T04:48:18.414Z,7.22
2023-03-14T04:48:50.425Z,7.22
2023-03-14T04:49:15.888Z,7.22
2023-03-14T04:49:37.910Z,7.22
2023-03-14T04:50:09.995Z,7.22
2023-03-14T04:50:42.429Z,7.22
2023-03-14T04:51:14.077Z,7.22
2023-03-14T04:51:46.183Z,7.22
2023-03-14T04:52:18.108Z,7.22
2023-03-14T04:52:50.177Z,7.11
2023-03-14T04:53:13.029Z,7.22
2023-03-14T04:53:35.365Z,7.22
2023-03-14T04:54:10.495Z,7.22
2023-03-14T04:54:43.638Z,7.22
2023-03-14T04:55:14.167Z,7.22
2023-03-14T04:55:46.418Z,7.22
2023-03-14T04:56:14.829Z,7.22
2023-03-14T04:56:47.113Z,7.22
2023-03-14T04:57:18.495Z,7.22
2023-03-14T04:57:54.132Z,7.22
2023-03-14T04:58:16.670Z,7.22
2023-03-14T04:58:41.635Z,7.22
2023-03-14T04:59:14.841Z,7.22
2023-03-14T04:59:49.402Z,7.22
2023-03-14T05:00:18.339Z,7.22
2023-03-14T05:00:50.822Z,7.22
2023-03-14T05:01:13.555Z,7.22
2023-03-14T05:01:35.844Z,7.22
2023-03-14T05:02:10.679Z,7.22
2023-03-14T05:02:45.657Z,7.22
2023-03-14T05:03:08.566Z,7.22
2023-03-14T05:03:46.704Z,7.22
2023-03-14T05:04:18.508Z,7.22
2023-03-14T05:04:50.419Z,7.22
2023-03-14T05:05:13.106Z,7.22
2023-03-14T05:05:35.407Z,7.22
2023-03-14T05:06:10.628Z,7.22
2023-03-14T05:06:42.086Z,7.22
2023-03-14T05:07:15.111Z,7.22
2023-03-14T05:07:46.087Z,7.22
2023-03-14T05:08:18.137Z,7.22
2023-03-14T05:08:49.990Z,7.22
2023-03-14T05:09:13.558Z,7.11
2023-03-14T05:09:35.822Z,7.38
2023-03-14T05:10:10.538Z,7.38
2023-03-14T05:10:42.005Z,7.27
2023-03-14T05:11:14.537Z,7.27
2023-03-14T05:11:46.243Z,7.27
2023-03-14T05:12:18.125Z,7.27
2023-03-14T05:12:50.006Z,7.27
2023-03-14T05:13:13.355Z,7.27
2023-03-14T05:13:35.753Z,7.27
2023-03-14T05:14:10.014Z,7.27
2023-03-14T05:14:42.280Z,7.38
2023-03-14T05:15:14.426Z,7.38
2023-03-14T05:15:47.914Z,7.38
2023-03-14T05:16:18.192Z,7.38
2023-03-14T05:16:50.206Z,7.38
2023-03-14T05:17:13.241Z,7.38
2023-03-14T05:17:35.701Z,7.50
2023-03-14T05:18:10.117Z,7.50
2023-03-14T05:18:42.215Z,7.22
2023-03-14T05:19:14.159Z,7.27
2023-03-14T05:19:48.139Z,7.27
2023-03-14T05:20:21.886Z,7.27
2023-03-14T05:20:50.215Z,7.27
2023-03-14T05:21:13.101Z,7.27
2023-03-14T05:21:35.461Z,7.27
2023-03-14T05:22:10.137Z,7.38
2023-03-14T05:22:42.195Z,7.38
2023-03-14T05:23:14.430Z,7.38
2023-03-14T05:23:48.782Z,7.38
2023-03-14T05:24:19.726Z,7.38
2023-03-14T05:24:50.215Z,7.27
2023-03-14T05:25:14.423Z,7.27
2023-03-14T05:25:36.698Z,7.27
2023-03-14T05:26:10.228Z,7.27
2023-03-14T05:26:42.090Z,7.27
2023-03-14T05:27:14.124Z,7.27
2023-03-14T05:27:46.010Z,7.27
2023-03-14T05:28:19.472Z,7.27
2023-03-14T05:28:50.430Z,7.27
2023-03-14T05:29:12.916Z,7.27
2023-03-14T05:29:35.311Z,7.27
2023-03-14T05:30:10.112Z,7.27
2023-03-14T05:30:42.094Z,7.27
2023-03-14T05:31:13.991Z,7.27
2023-03-14T05:31:46.474Z,7.27
2023-03-14T05:32:17.975Z,7.27
2023-03-14T05:32:50.281Z,7.27
2023-03-14T05:33:13.048Z,7.27
2023-03-14T05:33:35.293Z,7.27
2023-03-14T05:34:10.117Z,7.27
2023-03-14T05:34:42.578Z,7.27
2023-03-14T05:35:16.622Z,7.27
2023-03-14T05:35:46.627Z,7.27
2023-03-14T05:36:18.061Z,7.27
2023-03-14T05:36:52.500Z,7.27
2023-03-14T05:37:13.155Z,7.38
2023-03-14T05:37:35.623Z,7.38
2023-03-14T05:38:10.291Z,7.38
2023-03-14T05:38:42.040Z,7.38
2023-03-14T05:39:14.272Z,7.27
2023-03-14T05:39:46.076Z,7.27
2023-03-14T05:40:18.672Z,7.27
2023-03-14T05:40:52.397Z,7.27
2023-03-14T05:41:12.768Z,7.27
2023-03-14T05:41:35.185Z,7.27
2023-03-14T05:42:10.291Z,7.27
2023-03-14T05:42:42.136Z,7.27
2023-03-14T05:43:14.162Z,7.27
2023-03-14T05:43:46.296Z,7.27
2023-03-14T05:44:18.216Z,7.27
2023-03-14T05:44:52.642Z,7.27
2023-03-14T05:45:13.259Z,7.27
2023-03-14T05:45:35.922Z,7.22
2023-03-14T05:46:10.064Z,7.22
2023-03-14T05:46:42.237Z,7.22
2023-03-14T05:47:14.386Z,7.22
2023-03-14T05:47:46.295Z,7.22
2023-03-14T05:48:18.054Z,7.22
2023-03-14T05:48:53.013Z,7.22
2023-03-14T05:49:12.961Z,7.22
2023-03-14T05:49:35.439Z,7.22
2023-03-14T05:50:10.070Z,7.22
2023-03-14T05:50:42.476Z,7.22
2023-03-14T05:51:14.300Z,7.22
2023-03-14T05:51:46.324Z,7.50
2023-03-14T05:52:18.345Z,7.50
2023-03-14T05:52:50.286Z,7.38
2023-03-14T05:53:13.830Z,7.38
2023-03-14T05:53:36.492Z,7.38
2023-03-14T05:54:10.333Z,7.38
2023-03-14T05:54:45.684Z,7.38
2023-03-14T05:55:14.400Z,7.38
2023-03-14T05:55:46.684Z,7.38
2023-03-14T05:56:18.168Z,7.38
2023-03-14T05:56:50.106Z,7.38
2023-03-14T05:57:13.092Z,7.38
2023-03-14T05:57:35.409Z,7.38
2023-03-14T05:58:10.418Z,7.27
2023-03-14T05:58:45.037Z,7.27
2023-03-14T05:59:14.323Z,7.27
2023-03-14T05:59:46.114Z,7.27
2023-03-14T06:00:18.167Z,7.27
2023-03-14T06:00:50.210Z,7.38
2023-03-14T06:01:14.439Z,7.38
2023-03-14T06:01:35.480Z,7.38
2023-03-14T06:02:12.629Z,7.38
2023-03-14T06:02:42.165Z,7.38
2023-03-14T06:03:14.686Z,7.38
2023-03-14T06:03:40.199Z,7.27
2023-03-14T06:04:21.591Z,7.27
2023-03-14T06:04:50.850Z,7.27
2023-03-14T06:05:13.863Z,7.27
2023-03-14T06:05:36.809Z,7.27
2023-03-14T06:06:13.421Z,7.27
2023-03-14T06:06:58.603Z,7.27
2023-03-14T06:07:21.187Z,7.38
2023-03-14T06:07:43.440Z,7.38
2023-03-14T06:08:18.203Z,7.38
2023-03-14T06:08:50.330Z,7.27
2023-03-14T06:09:13.592Z,7.27
2023-03-14T06:09:36.322Z,7.27
2023-03-14T06:10:10.225Z,7.27
2023-03-14T06:10:42.386Z,7.27
2023-03-14T06:11:14.221Z,7.27
2023-03-14T06:11:46.064Z,7.27
2023-03-14T06:12:18.159Z,7.27
2023-03-14T06:12:50.193Z,7.27
2023-03-14T06:13:12.836Z,7.27
2023-03-14T06:13:35.230Z,7.27
2023-03-14T06:14:10.311Z,7.22
2023-03-14T06:14:42.185Z,7.38
2023-03-14T06:15:17.740Z,7.38
2023-03-14T06:15:46.051Z,7.38
2023-03-14T06:16:13.249Z,7.38
2023-03-14T06:16:47.379Z,7.38
2023-03-14T06:17:18.771Z,7.38
2023-03-14T06:17:58.189Z,7.38
2023-03-14T06:18:17.392Z,7.38
2023-03-14T06:18:40.362Z,7.38
2023-03-14T06:19:14.807Z,7.38
2023-03-14T06:19:46.989Z,7.38
2023-03-14T06:20:18.084Z,7.27
2023-03-14T06:20:50.303Z,7.27
2023-03-14T06:21:13.032Z,7.27
2023-03-14T06:21:35.441Z,7.27
2023-03-14T06:22:10.303Z,7.27
2023-03-14T06:22:42.637Z,7.27
2023-03-14T06:23:18.205Z,7.27
2023-03-14T06:23:40.590Z,7.61
2023-03-14T06:24:18.592Z,7.61
2023-03-14T06:24:50.165Z,7.61
2023-03-14T06:25:12.752Z,7.50
2023-03-14T06:25:35.213Z,7.50
2023-03-14T06:26:11.929Z,7.50
2023-03-14T06:26:45.016Z,7.50
2023-03-14T06:27:24.110Z,7.50
2023-03-14T06:28:02.598Z,7.50
2023-03-14T06:28:26.195Z,7.50
2023-03-14T06:28:47.552Z,7.50
2023-03-14T06:29:18.502Z,7.50
2023-03-14T06:29:54.316Z,7.50
2023-03-14T06:30:16.843Z,7.50
2023-03-14T06:30:39.366Z,7.50
2023-03-14T06:31:14.309Z,7.50
2023-03-14T06:31:46.230Z,7.50
2023-03-14T06:32:18.279Z,7.50
2023-03-14T06:32:50.387Z,7.38
2023-03-14T06:33:12.780Z,7.38
2023-03-14T06:33:35.061Z,7.38
2023-03-14T06:34:10.142Z,7.38
2023-03-14T06:34:42.234Z,7.38
2023-03-14T06:35:14.276Z,7.38
2023-03-14T06:35:46.265Z,7.38
2023-03-14T06:36:18.010Z,7.38
2023-03-14T06:36:50.151Z,7.38
2023-03-14T06:37:14.832Z,7.38
2023-03-14T06:37:35.696Z,7.38
2023-03-14T06:38:13.730Z,7.38
2023-03-14T06:38:42.131Z,7.38
2023-03-14T06:39:14.506Z,7.38
2023-03-14T06:39:46.387Z,7.38